To NAV CANADA Home Page Login to a new session Search on AWWS site Feedback and Comments Disclaimer Vers la page française équivalente Tips FAQ What's new on the site To the Forecasts and Observations / NOTAM section To "File a Flight Plan" website Publications and other links Update of the User's profile FIC Telephone Numbers My Weather Data Folder Route Weather Data Regional Weather Data Local Weather Data To the Forecasts and Observations / NOTAM section
Request Generated 08/29/2015 at 20:52:37 UTC . Weather information available at that time is displayed.

METAR/TAF

QUAQTAQ/QC    

METAR CYHA 292000Z 31007KT 15SM FEW025 BKN050 BKN100 06/02 A2979 RMK SC1SC6AC1 SLP092=
METAR CYHA 291900Z 31008KT 15SM FEW025 BKN050 BKN100 06/02 A2980 RMK SC1SC6AC1 SLP093=
METAR CYHA 291800Z 29006KT 15SM FEW025 BKN060 BKN100 06/02 A2980 RMK SC1SC6AC1 SLP093=

TAF CYHA 291338Z 2914/2921 30012KT P6SM SCT020 BKN040 TEMPO 2914/2918
P6SM -SHRA BKN020 OVC040
RMK NXT FCST WILL BE ISSUED AT 301345Z=
Your time UTC time
Weather data provided by Environment Canada and NAV CANADA